sensor_id;sensor_type;location;lat;lon;timestamp;temperature;humidity
15916;DHT22;8057;47.830;-3.870;2023-06-22T00:02:30;16.50;99.90
15916;DHT22;8057;47.830;-3.870;2023-06-22T00:06:40;16.50;99.90
15916;DHT22;8057;47.830;-3.870;2023-06-22T00:10:50;16.50;99.90
15916;DHT22;8057;47.830;-3.870;2023-06-22T00:15:00;16.40;99.90
15916;DHT22;8057;47.830;-3.870;2023-06-22T00:19:11;16.40;99.90
15916;DHT22;8057;47.830;-3.870;2023-06-22T00:23:21;16.30;99.90
15916;DHT22;8057;47.830;-3.870;2023-06-22T00:27:31;16.30;99.90
15916;DHT22;8057;47.830;-3.870;2023-06-22T00:31:41;16.30;99.90
15916;DHT22;8057;47.830;-3.870;2023-06-22T00:35:52;16.30;99.90
15916;DHT22;8057;47.830;-3.870;2023-06-22T00:40:02;16.30;99.90
15916;DHT22;8057;47.830;-3.870;2023-06-22T00:44:12;16.30;99.90
15916;DHT22;8057;47.830;-3.870;2023-06-22T00:48:22;16.30;99.90
15916;DHT22;8057;47.830;-3.870;2023-06-22T00:52:34;16.30;99.90
15916;DHT22;8057;47.830;-3.870;2023-06-22T00:56:45;16.30;99.90
15916;DHT22;8057;47.830;-3.870;2023-06-22T01:01:10;16.30;99.90
15916;DHT22;8057;47.830;-3.870;2023-06-22T01:05:22;16.30;99.90
15916;DHT22;8057;47.830;-3.870;2023-06-22T01:09:39;16.30;99.90
15916;DHT22;8057;47.830;-3.870;2023-06-22T01:13:57;16.20;99.90
15916;DHT22;8057;47.830;-3.870;2023-06-22T01:18:08;16.20;99.90
15916;DHT22;8057;47.830;-3.870;2023-06-22T01:22:21;16.10;99.90
15916;DHT22;8057;47.830;-3.870;2023-06-22T01:26:42;16.00;99.90
15916;DHT22;8057;47.830;-3.870;2023-06-22T01:31:08;16.00;99.90
15916;DHT22;8057;47.830;-3.870;2023-06-22T01:35:19;16.00;99.90
15916;DHT22;8057;47.830;-3.870;2023-06-22T01:39:38;15.90;99.90
15916;DHT22;8057;47.830;-3.870;2023-06-22T01:43:48;15.90;99.90
15916;DHT22;8057;47.830;-3.870;2023-06-22T01:48:00;15.80;99.90
15916;DHT22;8057;47.830;-3.870;2023-06-22T01:52:12;15.80;99.90
15916;DHT22;8057;47.830;-3.870;2023-06-22T01:56:21;15.80;99.90
15916;DHT22;8057;47.830;-3.870;2023-06-22T02:00:38;15.80;99.90
15916;DHT22;8057;47.830;-3.870;2023-06-22T02:05:12;15.80;99.90
15916;DHT22;8057;47.830;-3.870;2023-06-22T02:09:46;15.80;99.90
15916;DHT22;8057;47.830;-3.870;2023-06-22T02:13:58;15.90;99.90
15916;DHT22;8057;47.830;-3.870;2023-06-22T02:18:08;15.80;99.90
15916;DHT22;8057;47.830;-3.870;2023-06-22T02:22:20;15.70;99.90
15916;DHT22;8057;47.830;-3.870;2023-06-22T02:26:30;15.70;99.90
15916;DHT22;8057;47.830;-3.870;2023-06-22T02:30:40;15.70;99.90
15916;DHT22;8057;47.830;-3.870;2023-06-22T02:34:50;15.60;99.90
15916;DHT22;8057;47.830;-3.870;2023-06-22T02:39:01;15.60;99.90
15916;DHT22;8057;47.830;-3.870;2023-06-22T02:43:11;15.50;99.90
15916;DHT22;8057;47.830;-3.870;2023-06-22T02:47:21;15.60;99.90
15916;DHT22;8057;47.830;-3.870;2023-06-22T02:51:33;15.60;99.90
15916;DHT22;8057;47.830;-3.870;2023-06-22T02:55:45;15.50;99.90
15916;DHT22;8057;47.830;-3.870;2023-06-22T02:59:57;15.50;99.90
15916;DHT22;8057;47.830;-3.870;2023-06-22T03:04:07;15.50;99.90
15916;DHT22;8057;47.830;-3.870;2023-06-22T03:08:17;15.50;99.90
15916;DHT22;8057;47.830;-3.870;2023-06-22T03:12:29;15.50;99.90
15916;DHT22;8057;47.830;-3.870;2023-06-22T03:16:38;15.50;99.90
15916;DHT22;8057;47.830;-3.870;2023-06-22T03:20:48;15.40;99.90
15916;DHT22;8057;47.830;-3.870;2023-06-22T03:24:58;15.40;99.90
15916;DHT22;8057;47.830;-3.870;2023-06-22T03:29:09;15.40;99.90
15916;DHT22;8057;47.830;-3.870;2023-06-22T03:33:19;15.30;99.90
15916;DHT22;8057;47.830;-3.870;2023-06-22T03:37:28;15.30;99.90
15916;DHT22;8057;47.830;-3.870;2023-06-22T03:41:38;15.30;99.90
15916;DHT22;8057;47.830;-3.870;2023-06-22T03:45:49;15.20;99.90
15916;DHT22;8057;47.830;-3.870;2023-06-22T03:49:59;15.20;99.90
15916;DHT22;8057;47.830;-3.870;2023-06-22T03:54:08;15.20;99.90
15916;DHT22;8057;47.830;-3.870;2023-06-22T03:58:18;15.10;99.90
15916;DHT22;8057;47.830;-3.870;2023-06-22T04:02:30;15.10;99.90
15916;DHT22;8057;47.830;-3.870;2023-06-22T04:06:40;15.20;99.90
15916;DHT22;8057;47.830;-3.870;2023-06-22T04:10:49;15.10;99.90
15916;DHT22;8057;47.830;-3.870;2023-06-22T04:14:59;15.00;99.90
15916;DHT22;8057;47.830;-3.870;2023-06-22T04:19:10;14.90;99.90
15916;DHT22;8057;47.830;-3.870;2023-06-22T04:23:25;14.80;99.90
15916;DHT22;8057;47.830;-3.870;2023-06-22T04:27:35;14.80;99.90
15916;DHT22;8057;47.830;-3.870;2023-06-22T04:31:49;14.80;99.90
15916;DHT22;8057;47.830;-3.870;2023-06-22T04:36:00;14.80;99.90
15916;DHT22;8057;47.830;-3.870;2023-06-22T04:40:10;14.80;99.90
15916;DHT22;8057;47.830;-3.870;2023-06-22T04:44:35;14.80;99.90
15916;DHT22;8057;47.830;-3.870;2023-06-22T04:48:44;14.90;99.90
15916;DHT22;8057;47.830;-3.870;2023-06-22T04:52:56;14.80;99.90
15916;DHT22;8057;47.830;-3.870;2023-06-22T04:57:06;14.90;99.90
15916;DHT22;8057;47.830;-3.870;2023-06-22T05:01:21;14.90;99.90
15916;DHT22;8057;47.830;-3.870;2023-06-22T05:05:31;14.90;99.90
15916;DHT22;8057;47.830;-3.870;2023-06-22T05:09:42;14.90;99.90
15916;DHT22;8057;47.830;-3.870;2023-06-22T05:13:52;15.00;99.90
15916;DHT22;8057;47.830;-3.870;2023-06-22T05:18:02;15.00;99.90
15916;DHT22;8057;47.830;-3.870;2023-06-22T05:22:14;15.10;99.90
15916;DHT22;8057;47.830;-3.870;2023-06-22T05:26:27;15.10;99.90
15916;DHT22;8057;47.830;-3.870;2023-06-22T05:30:36;15.10;99.90
15916;DHT22;8057;47.830;-3.870;2023-06-22T05:34:46;15.20;99.90
15916;DHT22;8057;47.830;-3.870;2023-06-22T05:39:14;15.20;99.90
15916;DHT22;8057;47.830;-3.870;2023-06-22T05:43:28;15.30;99.90
15916;DHT22;8057;47.830;-3.870;2023-06-22T05:47:38;15.30;99.90
15916;DHT22;8057;47.830;-3.870;2023-06-22T05:51:48;15.40;99.90
15916;DHT22;8057;47.830;-3.870;2023-06-22T05:55:57;15.40;99.90
15916;DHT22;8057;47.830;-3.870;2023-06-22T06:00:10;15.50;99.90
15916;DHT22;8057;47.830;-3.870;2023-06-22T06:04:23;15.60;99.90
15916;DHT22;8057;47.830;-3.870;2023-06-22T06:08:35;15.70;99.90
15916;DHT22;8057;47.830;-3.870;2023-06-22T06:12:45;15.80;99.90
15916;DHT22;8057;47.830;-3.870;2023-06-22T06:16:56;15.90;99.90
15916;DHT22;8057;47.830;-3.870;2023-06-22T06:21:06;16.00;99.90
15916;DHT22;8057;47.830;-3.870;2023-06-22T06:25:16;16.10;99.90
15916;DHT22;8057;47.830;-3.870;2023-06-22T06:29:29;16.20;99.90
15916;DHT22;8057;47.830;-3.870;2023-06-22T06:33:40;16.30;99.90
15916;DHT22;8057;47.830;-3.870;2023-06-22T06:37:50;16.40;99.90
15916;DHT22;8057;47.830;-3.870;2023-06-22T06:42:01;16.60;99.90
15916;DHT22;8057;47.830;-3.870;2023-06-22T06:46:10;16.70;99.90
15916;DHT22;8057;47.830;-3.870;2023-06-22T06:50:21;16.80;99.90
15916;DHT22;8057;47.830;-3.870;2023-06-22T06:54:32;16.90;99.90
15916;DHT22;8057;47.830;-3.870;2023-06-22T06:58:42;17.00;99.90
15916;DHT22;8057;47.830;-3.870;2023-06-22T07:02:53;17.10;99.90
15916;DHT22;8057;47.830;-3.870;2023-06-22T07:07:05;17.20;99.90
15916;DHT22;8057;47.830;-3.870;2023-06-22T07:11:31;17.30;99.90
15916;DHT22;8057;47.830;-3.870;2023-06-22T07:15:56;17.50;99.90
15916;DHT22;8057;47.830;-3.870;2023-06-22T07:20:21;17.60;99.90
15916;DHT22;8057;47.830;-3.870;2023-06-22T07:31:49;17.80;99.90
15916;DHT22;8057;47.830;-3.870;2023-06-22T07:36:08;18.00;99.90
15916;DHT22;8057;47.830;-3.870;2023-06-22T07:40:42;18.20;99.90
15916;DHT22;8057;47.830;-3.870;2023-06-22T07:44:57;18.20;99.90
15916;DHT22;8057;47.830;-3.870;2023-06-22T07:53:34;18.50;99.90
15916;DHT22;8057;47.830;-3.870;2023-06-22T08:02:26;18.70;99.90
15916;DHT22;8057;47.830;-3.870;2023-06-22T08:06:52;18.90;99.90
15916;DHT22;8057;47.830;-3.870;2023-06-22T08:11:14;18.90;99.90
15916;DHT22;8057;47.830;-3.870;2023-06-22T08:15:35;19.10;99.90
15916;DHT22;8057;47.830;-3.870;2023-06-22T08:19:49;19.30;99.90
15916;DHT22;8057;47.830;-3.870;2023-06-22T08:24:09;19.50;99.90
15916;DHT22;8057;47.830;-3.870;2023-06-22T08:28:40;19.60;99.90
15916;DHT22;8057;47.830;-3.870;2023-06-22T08:32:53;19.80;99.90
15916;DHT22;8057;47.830;-3.870;2023-06-22T08:37:05;20.00;99.90
15916;DHT22;8057;47.830;-3.870;2023-06-22T08:41:15;20.20;99.90
15916;DHT22;8057;47.830;-3.870;2023-06-22T08:45:26;20.60;99.90
15916;DHT22;8057;47.830;-3.870;2023-06-22T08:49:37;20.90;99.90
15916;DHT22;8057;47.830;-3.870;2023-06-22T08:53:46;21.20;99.90
15916;DHT22;8057;47.830;-3.870;2023-06-22T09:02:20;22.00;99.90
15916;DHT22;8057;47.830;-3.870;2023-06-22T09:06:30;22.40;99.90
15916;DHT22;8057;47.830;-3.870;2023-06-22T09:11:29;22.50;99.90
15916;DHT22;8057;47.830;-3.870;2023-06-22T09:15:48;22.70;99.90
15916;DHT22;8057;47.830;-3.870;2023-06-22T09:30:29;23.40;99.90
15916;DHT22;8057;47.830;-3.870;2023-06-22T09:34:38;23.60;99.90
15916;DHT22;8057;47.830;-3.870;2023-06-22T09:39:26;23.80;99.90
15916;DHT22;8057;47.830;-3.870;2023-06-22T09:44:03;24.20;99.90
15916;DHT22;8057;47.830;-3.870;2023-06-22T09:48:29;24.50;99.90
15916;DHT22;8057;47.830;-3.870;2023-06-22T09:52:51;24.80;99.90
15916;DHT22;8057;47.830;-3.870;2023-06-22T09:57:21;24.90;99.90
15916;DHT22;8057;47.830;-3.870;2023-06-22T10:01:34;25.10;99.90
15916;DHT22;8057;47.830;-3.870;2023-06-22T10:05:49;25.30;99.90
15916;DHT22;8057;47.830;-3.870;2023-06-22T10:09:59;25.30;99.90
15916;DHT22;8057;47.830;-3.870;2023-06-22T10:14:09;25.40;99.90
15916;DHT22;8057;47.830;-3.870;2023-06-22T10:18:29;25.50;99.90
15916;DHT22;8057;47.830;-3.870;2023-06-22T10:23:05;25.60;99.90
15916;DHT22;8057;47.830;-3.870;2023-06-22T12:54:12;26.30;99.90
15916;DHT22;8057;47.830;-3.870;2023-06-22T12:59:24;26.90;99.90
15916;DHT22;8057;47.830;-3.870;2023-06-22T13:04:11;26.50;99.90
15916;DHT22;8057;47.830;-3.870;2023-06-22T13:08:28;26.00;99.90
15916;DHT22;8057;47.830;-3.870;2023-06-22T13:13:56;25.60;99.90
15916;DHT22;8057;47.830;-3.870;2023-06-22T13:18:44;25.80;99.90
15916;DHT22;8057;47.830;-3.870;2023-06-22T13:28:22;26.20;99.90
15916;DHT22;8057;47.830;-3.870;2023-06-22T13:32:40;26.50;99.90
15916;DHT22;8057;47.830;-3.870;2023-06-22T13:36:59;26.50;99.90
15916;DHT22;8057;47.830;-3.870;2023-06-22T13:41:31;26.40;99.90
15916;DHT22;8057;47.830;-3.870;2023-06-22T13:46:14;26.30;99.90
15916;DHT22;8057;47.830;-3.870;2023-06-22T13:50:47;26.50;99.90
15916;DHT22;8057;47.830;-3.870;2023-06-22T13:55:03;26.90;99.90
15916;DHT22;8057;47.830;-3.870;2023-06-22T13:59:17;26.90;99.90
15916;DHT22;8057;47.830;-3.870;2023-06-22T14:03:53;26.60;99.90
15916;DHT22;8057;47.830;-3.870;2023-06-22T14:13:47;26.70;99.90
15916;DHT22;8057;47.830;-3.870;2023-06-22T14:18:26;26.90;99.90
15916;DHT22;8057;47.830;-3.870;2023-06-22T14:23:44;27.00;99.90
15916;DHT22;8057;47.830;-3.870;2023-06-22T14:28:26;26.90;99.90
15916;DHT22;8057;47.830;-3.870;2023-06-22T14:32:48;27.10;99.90
15916;DHT22;8057;47.830;-3.870;2023-06-22T14:37:35;26.90;99.90
15916;DHT22;8057;47.830;-3.870;2023-06-22T14:42:03;27.10;99.90
15916;DHT22;8057;47.830;-3.870;2023-06-22T14:46:58;27.40;99.90
15916;DHT22;8057;47.830;-3.870;2023-06-22T14:51:28;26.90;99.90
15916;DHT22;8057;47.830;-3.870;2023-06-22T14:56:07;26.50;99.90
15916;DHT22;8057;47.830;-3.870;2023-06-22T15:01:30;26.70;99.90
15916;DHT22;8057;47.830;-3.870;2023-06-22T15:05:58;26.80;99.90
15916;DHT22;8057;47.830;-3.870;2023-06-22T15:10:32;26.40;99.90
15916;DHT22;8057;47.830;-3.870;2023-06-22T15:14:43;26.30;99.90
15916;DHT22;8057;47.830;-3.870;2023-06-22T15:18:53;26.20;99.90
15916;DHT22;8057;47.830;-3.870;2023-06-22T15:23:11;26.30;99.90
15916;DHT22;8057;47.830;-3.870;2023-06-22T15:27:40;26.20;99.90
15916;DHT22;8057;47.830;-3.870;2023-06-22T15:31:57;26.10;99.90
15916;DHT22;8057;47.830;-3.870;2023-06-22T15:36:22;26.00;99.90
15916;DHT22;8057;47.830;-3.870;2023-06-22T15:41:06;25.80;99.90
15916;DHT22;8057;47.830;-3.870;2023-06-22T15:45:46;25.90;99.90
15916;DHT22;8057;47.830;-3.870;2023-06-22T15:50:21;25.90;99.90
15916;DHT22;8057;47.830;-3.870;2023-06-22T15:54:44;25.90;99.90
15916;DHT22;8057;47.830;-3.870;2023-06-22T15:59:20;26.10;99.90
15916;DHT22;8057;47.830;-3.870;2023-06-22T16:09:35;26.50;99.90
15916;DHT22;8057;47.830;-3.870;2023-06-22T16:14:18;26.70;99.90
15916;DHT22;8057;47.830;-3.870;2023-06-22T16:23:33;26.70;99.90
15916;DHT22;8057;47.830;-3.870;2023-06-22T16:28:08;26.60;99.90
15916;DHT22;8057;47.830;-3.870;2023-06-22T16:32:46;26.80;99.90
15916;DHT22;8057;47.830;-3.870;2023-06-22T17:29:59;26.30;99.90
15916;DHT22;8057;47.830;-3.870;2023-06-22T17:34:45;26.30;99.90
15916;DHT22;8057;47.830;-3.870;2023-06-22T18:31:34;24.00;99.90
15916;DHT22;8057;47.830;-3.870;2023-06-22T18:35:44;24.00;99.90
15916;DHT22;8057;47.830;-3.870;2023-06-22T18:39:55;24.00;99.90
15916;DHT22;8057;47.830;-3.870;2023-06-22T18:44:07;24.00;99.90
15916;DHT22;8057;47.830;-3.870;2023-06-22T18:48:25;23.90;99.90
15916;DHT22;8057;47.830;-3.870;2023-06-22T18:52:36;23.70;99.90
15916;DHT22;8057;47.830;-3.870;2023-06-22T18:56:52;23.40;99.90
15916;DHT22;8057;47.830;-3.870;2023-06-22T19:01:15;23.30;99.90
15916;DHT22;8057;47.830;-3.870;2023-06-22T19:05:41;23.10;99.90
15916;DHT22;8057;47.830;-3.870;2023-06-22T19:10:21;22.70;99.90
15916;DHT22;8057;47.830;-3.870;2023-06-22T19:14:30;22.60;99.90
15916;DHT22;8057;47.830;-3.870;2023-06-22T19:18:40;22.40;99.90
15916;DHT22;8057;47.830;-3.870;2023-06-22T19:22:56;22.30;99.90
15916;DHT22;8057;47.830;-3.870;2023-06-22T19:27:06;22.20;99.90
15916;DHT22;8057;47.830;-3.870;2023-06-22T19:32:19;22.10;99.90
15916;DHT22;8057;47.830;-3.870;2023-06-22T19:36:31;21.90;99.90
15916;DHT22;8057;47.830;-3.870;2023-06-22T19:40:41;21.80;99.90
15916;DHT22;8057;47.830;-3.870;2023-06-22T19:44:50;21.80;99.90
15916;DHT22;8057;47.830;-3.870;2023-06-22T19:49:02;21.70;99.90
15916;DHT22;8057;47.830;-3.870;2023-06-22T19:53:13;21.70;99.90
15916;DHT22;8057;47.830;-3.870;2023-06-22T19:57:23;21.60;99.90
15916;DHT22;8057;47.830;-3.870;2023-06-22T20:01:33;21.40;99.90
15916;DHT22;8057;47.830;-3.870;2023-06-22T20:05:45;21.20;99.90
15916;DHT22;8057;47.830;-3.870;2023-06-22T20:10:09;21.10;99.90
15916;DHT22;8057;47.830;-3.870;2023-06-22T20:14:20;20.90;99.90
15916;DHT22;8057;47.830;-3.870;2023-06-22T20:18:33;20.80;99.90
15916;DHT22;8057;47.830;-3.870;2023-06-22T20:22:45;20.70;99.90
15916;DHT22;8057;47.830;-3.870;2023-06-22T20:27:00;20.50;99.90
15916;DHT22;8057;47.830;-3.870;2023-06-22T20:31:17;20.30;99.90
15916;DHT22;8057;47.830;-3.870;2023-06-22T20:35:32;20.20;99.90
15916;DHT22;8057;47.830;-3.870;2023-06-22T20:39:44;20.10;99.90
15916;DHT22;8057;47.830;-3.870;2023-06-22T20:43:56;20.00;99.90
15916;DHT22;8057;47.830;-3.870;2023-06-22T20:48:09;19.90;99.90
15916;DHT22;8057;47.830;-3.870;2023-06-22T20:52:44;19.80;99.90
15916;DHT22;8057;47.830;-3.870;2023-06-22T20:56:57;19.70;99.90
15916;DHT22;8057;47.830;-3.870;2023-06-22T21:01:07;19.60;99.90
15916;DHT22;8057;47.830;-3.870;2023-06-22T21:05:51;19.50;99.90
15916;DHT22;8057;47.830;-3.870;2023-06-22T21:10:23;19.40;99.90
15916;DHT22;8057;47.830;-3.870;2023-06-22T21:14:35;19.40;99.90
15916;DHT22;8057;47.830;-3.870;2023-06-22T21:18:45;19.30;99.90
15916;DHT22;8057;47.830;-3.870;2023-06-22T21:22:58;19.30;99.90
15916;DHT22;8057;47.830;-3.870;2023-06-22T21:27:11;19.20;99.90
15916;DHT22;8057;47.830;-3.870;2023-06-22T21:36:16;19.10;99.90
15916;DHT22;8057;47.830;-3.870;2023-06-22T21:40:27;18.90;99.90
15916;DHT22;8057;47.830;-3.870;2023-06-22T21:44:38;18.80;99.90
15916;DHT22;8057;47.830;-3.870;2023-06-22T21:48:47;18.60;99.90
15916;DHT22;8057;47.830;-3.870;2023-06-22T21:52:59;18.50;99.90
15916;DHT22;8057;47.830;-3.870;2023-06-22T21:57:10;18.40;99.90
15916;DHT22;8057;47.830;-3.870;2023-06-22T22:01:19;18.30;99.90
15916;DHT22;8057;47.830;-3.870;2023-06-22T22:05:29;18.30;99.90
15916;DHT22;8057;47.830;-3.870;2023-06-22T22:09:40;18.20;99.90
15916;DHT22;8057;47.830;-3.870;2023-06-22T22:13:50;18.10;99.90
15916;DHT22;8057;47.830;-3.870;2023-06-22T22:18:00;18.00;99.90
15916;DHT22;8057;47.830;-3.870;2023-06-22T22:22:12;17.90;99.90
15916;DHT22;8057;47.830;-3.870;2023-06-22T22:26:23;17.80;99.90
15916;DHT22;8057;47.830;-3.870;2023-06-22T22:30:32;17.80;99.90
15916;DHT22;8057;47.830;-3.870;2023-06-22T22:34:42;17.70;99.90
15916;DHT22;8057;47.830;-3.870;2023-06-22T22:38:51;17.60;99.90
15916;DHT22;8057;47.830;-3.870;2023-06-22T22:43:02;17.70;99.90
15916;DHT22;8057;47.830;-3.870;2023-06-22T22:47:12;17.80;99.90
15916;DHT22;8057;47.830;-3.870;2023-06-22T22:51:21;17.70;99.90
15916;DHT22;8057;47.830;-3.870;2023-06-22T22:55:31;17.70;99.90
15916;DHT22;8057;47.830;-3.870;2023-06-22T22:59:42;17.70;99.90
15916;DHT22;8057;47.830;-3.870;2023-06-22T23:03:51;17.60;99.90
15916;DHT22;8057;47.830;-3.870;2023-06-22T23:08:03;17.40;99.90
15916;DHT22;8057;47.830;-3.870;2023-06-22T23:12:14;17.30;99.90
15916;DHT22;8057;47.830;-3.870;2023-06-22T23:16:25;17.20;99.90
15916;DHT22;8057;47.830;-3.870;2023-06-22T23:20:35;17.10;99.90
15916;DHT22;8057;47.830;-3.870;2023-06-22T23:24:45;16.90;99.90
15916;DHT22;8057;47.830;-3.870;2023-06-22T23:28:54;16.90;99.90
15916;DHT22;8057;47.830;-3.870;2023-06-22T23:33:05;16.90;99.90
15916;DHT22;8057;47.830;-3.870;2023-06-22T23:37:16;16.90;99.90
15916;DHT22;8057;47.830;-3.870;2023-06-22T23:41:25;16.80;99.90
15916;DHT22;8057;47.830;-3.870;2023-06-22T23:45:35;16.70;99.90
15916;DHT22;8057;47.830;-3.870;2023-06-22T23:49:46;16.80;99.90
15916;DHT22;8057;47.830;-3.870;2023-06-22T23:53:55;16.90;99.90
15916;DHT22;8057;47.830;-3.870;2023-06-22T23:58:05;16.90;99.90
